createdAt,value
2022-09-10T00:02:45.246Z,2.65
2022-09-10T00:06:47.248Z,1.17
2022-09-10T00:10:52.042Z,1.58
2022-09-10T00:14:54.353Z,1.50
2022-09-10T00:19:01.021Z,1.80
2022-09-10T00:23:03.194Z,1.67
2022-09-10T00:27:05.207Z,1.05
2022-09-10T00:31:07.410Z,1.50
2022-09-10T00:35:09.423Z,2.22
2022-09-10T00:39:17.599Z,2.97
2022-09-10T00:43:21.757Z,2.97
2022-09-10T00:47:29.035Z,2.33
2022-09-10T00:55:38.301Z,5.82
2022-09-10T00:59:43.498Z,2.72
2022-09-10T01:03:46.502Z,3.80
2022-09-10T01:07:49.032Z,1.67
2022-09-10T01:12:26.491Z,3.05
2022-09-10T01:16:36.843Z,2.65
2022-09-10T01:21:03.988Z,2.50
2022-09-10T01:25:31.285Z,2.08
2022-09-10T01:29:39.076Z,2.70
2022-09-10T01:33:49.091Z,3.08
2022-09-10T01:37:55.266Z,3.90
2022-09-10T01:41:58.842Z,4.10
2022-09-10T01:46:44.723Z,3.13
2022-09-10T01:51:16.553Z,4.72
2022-09-10T01:55:51.009Z,4.57
2022-09-10T02:00:14.583Z,4.85
2022-09-10T02:04:19.629Z,5.90
2022-09-10T02:08:30.005Z,3.83
2022-09-10T02:12:33.197Z,5.15
2022-09-10T02:17:05.572Z,6.80
2022-09-10T02:21:10.195Z,3.35
2022-09-10T02:25:12.380Z,3.10
2022-09-10T02:29:16.920Z,3.58
2022-09-10T02:33:20.077Z,5.43
2022-09-10T02:37:24.246Z,6.22
2022-09-10T02:41:26.572Z,5.43
2022-09-10T02:45:30.056Z,5.50
2022-09-10T02:49:34.658Z,6.93
2022-09-10T02:53:37.329Z,6.20
2022-09-10T02:57:40.390Z,6.28
2022-09-10T03:01:42.546Z,5.53
2022-09-10T03:05:44.915Z,6.85
2022-09-10T03:09:47.380Z,6.13
2022-09-10T03:13:50.806Z,5.57
2022-09-10T03:17:53.031Z,5.22
2022-09-10T03:21:55.225Z,6.43
2022-09-10T03:25:57.330Z,4.80
2022-09-10T03:30:01.293Z,7.22
2022-09-10T03:34:06.642Z,6.50
2022-09-10T03:38:08.625Z,7.65
2022-09-10T03:42:11.062Z,8.93
2022-09-10T03:46:13.124Z,8.07
2022-09-10T03:50:18.401Z,6.68
2022-09-10T03:54:20.726Z,7.05
2022-09-10T03:58:23.286Z,7.57
2022-09-10T04:02:26.878Z,6.07
2022-09-10T04:06:28.994Z,7.00
2022-09-10T04:10:31.157Z,6.07
2022-09-10T04:14:34.363Z,5.20
2022-09-10T04:18:37.887Z,4.50
2022-09-10T04:22:39.990Z,3.90
2022-09-10T04:26:42.117Z,4.05
2022-09-10T04:30:47.011Z,3.50
2022-09-10T04:34:49.593Z,3.67
2022-09-10T04:38:53.077Z,3.67
2022-09-10T04:42:55.183Z,3.50
2022-09-10T04:46:57.300Z,3.58
2022-09-10T04:51:15.856Z,3.83
2022-09-10T04:55:20.634Z,4.53
2022-09-10T04:59:22.993Z,3.22
2022-09-10T05:03:25.120Z,3.55
2022-09-10T05:07:28.413Z,4.90
2022-09-10T05:11:31.386Z,4.32
2022-09-10T05:15:35.057Z,3.10
2022-09-10T05:19:39.453Z,3.33
2022-09-10T05:23:44.225Z,3.05
2022-09-10T05:27:46.534Z,3.75
2022-09-10T05:31:53.294Z,3.78
2022-09-10T05:35:55.528Z,2.47
2022-09-10T05:39:57.784Z,2.92
2022-09-10T05:44:00.436Z,3.40
2022-09-10T05:48:04.037Z,2.42
2022-09-10T05:52:06.270Z,2.15
2022-09-10T05:56:09.227Z,1.70
2022-09-10T06:00:12.612Z,1.95
2022-09-10T06:04:24.195Z,4.57
2022-09-10T06:08:26.420Z,4.13
2022-09-10T06:12:29.602Z,2.42
2022-09-10T06:16:32.673Z,2.30
2022-09-10T06:20:36.974Z,2.00
2022-09-10T06:24:40.898Z,1.92
2022-09-10T06:28:43.385Z,1.08
2022-09-10T06:32:46.405Z,0.93
2022-09-10T06:36:49.374Z,4.15
2022-09-10T06:40:56.598Z,1.20
2022-09-10T06:45:00.062Z,1.07
2022-09-10T06:49:31.116Z,0.50
2022-09-10T06:53:33.646Z,0.85
2022-09-10T06:57:36.986Z,0.73
2022-09-10T07:01:39.325Z,0.50
2022-09-10T07:05:42.486Z,0.20
2022-09-10T07:09:44.581Z,0.50
2022-09-10T07:13:52.157Z,0.70
2022-09-10T07:17:56.457Z,0.73
2022-09-10T07:21:58.726Z,0.85
2022-09-10T07:26:06.315Z,0.63
2022-09-10T07:30:14.195Z,0.63
2022-09-10T07:34:16.368Z,1.23
2022-09-10T07:38:20.525Z,0.70
2022-09-10T07:42:25.251Z,2.15
2022-09-10T07:46:28.336Z,1.55
2022-09-10T07:50:31.552Z,1.13
2022-09-10T07:54:34.873Z,0.68
2022-09-10T07:58:38.309Z,1.38
2022-09-10T08:02:46.833Z,0.38
2022-09-10T08:06:53.293Z,1.23
2022-09-10T08:10:55.669Z,2.55
2022-09-10T08:14:58.786Z,0.63
2022-09-10T08:19:02.687Z,2.15
2022-09-10T08:23:07.827Z,1.80
2022-09-10T08:27:11.615Z,1.20
2022-09-10T08:31:13.941Z,1.58
2022-09-10T08:35:24.078Z,1.40
2022-09-10T08:39:26.505Z,1.90
2022-09-10T08:43:38.137Z,4.07
2022-09-10T08:48:18.939Z,1.83
2022-09-10T08:52:40.560Z,8.48
2022-09-10T08:56:49.393Z,2.53
2022-09-10T09:00:57.680Z,2.17
2022-09-10T09:05:21.098Z,3.92
2022-09-10T09:09:25.898Z,1.33
2022-09-10T09:13:44.242Z,2.45
2022-09-10T09:18:10.876Z,2.45
2022-09-10T09:22:29.201Z,2.80
2022-09-10T09:26:35.995Z,2.38
2022-09-10T09:30:49.345Z,2.70
2022-09-10T09:34:56.921Z,1.23
2022-09-10T09:38:59.496Z,2.00
2022-09-10T09:43:13.213Z,4.18
2022-09-10T09:47:15.495Z,3.75
2022-09-10T09:51:21.201Z,1.67
2022-09-10T09:55:40.181Z,1.77
2022-09-10T09:59:42.234Z,1.75
2022-09-10T10:03:55.004Z,1.85
2022-09-10T10:07:57.288Z,2.78
2022-09-10T10:12:04.588Z,3.83
2022-09-10T10:16:24.050Z,1.45
2022-09-10T10:20:38.807Z,1.67
2022-09-10T10:24:42.473Z,2.15
2022-09-10T10:29:06.515Z,2.17
2022-09-10T10:33:18.117Z,1.35
2022-09-10T10:37:42.944Z,1.48
2022-09-10T10:41:58.664Z,1.58
2022-09-10T10:46:20.800Z,1.88
2022-09-10T10:50:53.248Z,1.23
2022-09-10T10:55:04.043Z,1.83
2022-09-10T10:59:33.055Z,1.65
2022-09-10T11:03:44.189Z,2.92
2022-09-10T11:07:47.280Z,2.05
2022-09-10T11:12:08.841Z,1.08
2022-09-10T11:16:21.600Z,2.03
2022-09-10T11:20:34.915Z,2.67
2022-09-10T11:24:50.027Z,2.00
2022-09-10T11:29:04.360Z,1.15
2022-09-10T11:33:19.933Z,0.90
2022-09-10T11:37:57.720Z,0.98
2022-09-10T11:42:10.224Z,0.93
2022-09-10T11:46:21.262Z,0.95
2022-09-10T11:50:33.882Z,1.02
2022-09-10T11:54:38.947Z,1.70
2022-09-10T11:58:56.055Z,1.23
2022-09-10T12:03:22.071Z,1.13
2022-09-10T12:07:44.382Z,0.50
2022-09-10T12:11:52.125Z,0.95
2022-09-10T12:15:59.685Z,3.92
2022-09-10T12:20:05.713Z,0.77
2022-09-10T12:24:37.639Z,0.55
2022-09-10T12:28:42.749Z,1.80
2022-09-10T12:32:44.774Z,0.45
2022-09-10T12:36:49.780Z,0.68
2022-09-10T12:40:51.898Z,0.80
2022-09-10T12:44:54.104Z,1.05
2022-09-10T12:48:56.068Z,0.95
2022-09-10T12:53:16.666Z,1.05
2022-09-10T12:57:41.740Z,3.72
2022-09-10T13:01:47.545Z,2.03
2022-09-10T13:05:51.518Z,1.48
2022-09-10T13:10:01.414Z,0.98
2022-09-10T13:14:05.263Z,0.98
2022-09-10T13:18:23.669Z,0.32
2022-09-10T13:22:53.605Z,0.52
2022-09-10T13:27:21.238Z,0.30
2022-09-10T13:31:26.746Z,0.60
2022-09-10T13:36:11.314Z,1.38
2022-09-10T13:40:41.498Z,0.93
2022-09-10T13:44:49.370Z,1.27
2022-09-10T13:48:57.239Z,0.98
2022-09-10T13:53:01.137Z,6.55
2022-09-10T13:57:17.812Z,3.45
2022-09-10T14:01:19.898Z,0.80
2022-09-10T14:05:23.079Z,1.77
2022-09-10T14:09:26.062Z,3.47
2022-09-10T14:13:34.882Z,2.90
2022-09-10T14:18:03.400Z,3.35
2022-09-10T14:22:09.824Z,2.05
2022-09-10T14:26:30.280Z,4.28
2022-09-10T14:30:32.912Z,1.35
2022-09-10T14:34:38.110Z,1.55
2022-09-10T14:38:42.399Z,2.65
2022-09-10T14:42:46.036Z,2.50
2022-09-10T14:46:49.301Z,3.00
2022-09-10T14:51:01.733Z,0.98
2022-09-10T14:55:03.958Z,0.98
2022-09-10T14:59:10.547Z,3.72
2022-09-10T15:03:15.820Z,1.70
2022-09-10T15:07:17.878Z,1.52
2022-09-10T15:11:25.629Z,2.10
2022-09-10T15:15:29.708Z,1.50
2022-09-10T15:19:31.995Z,3.40
2022-09-10T15:23:34.653Z,1.20
2022-09-10T15:27:36.871Z,2.42
2022-09-10T15:31:39.299Z,0.47
2022-09-10T15:35:41.622Z,1.23
2022-09-10T15:39:43.793Z,2.05
2022-09-10T15:43:46.022Z,2.63
2022-09-10T15:47:48.039Z,2.00
2022-09-10T15:51:50.009Z,2.17
2022-09-10T15:55:53.061Z,2.75
2022-09-10T15:59:55.394Z,1.63
2022-09-10T16:04:02.648Z,1.98
2022-09-10T16:12:06.606Z,3.22
2022-09-10T16:16:11.992Z,2.72
2022-09-10T16:20:14.072Z,0.95
2022-09-10T16:24:16.063Z,1.83
2022-09-10T16:28:18.791Z,1.77
2022-09-10T16:32:20.819Z,1.42
2022-09-10T16:36:23.546Z,2.03
2022-09-10T16:40:25.718Z,3.58
2022-09-10T16:44:28.705Z,1.77
2022-09-10T16:48:34.407Z,2.15
2022-09-10T16:52:36.696Z,4.50
2022-09-10T16:56:42.022Z,1.60
2022-09-10T17:00:45.176Z,1.73
2022-09-10T17:04:47.861Z,1.42
2022-09-10T17:08:51.055Z,1.58
2022-09-10T17:12:53.332Z,2.35
2022-09-10T17:16:56.218Z,2.15
2022-09-10T17:20:58.232Z,1.55
2022-09-10T17:25:00.226Z,2.15
2022-09-10T17:29:07.985Z,0.82
2022-09-10T17:33:09.990Z,1.40
2022-09-10T17:37:11.994Z,1.33
2022-09-10T17:41:14.636Z,2.33
2022-09-10T17:45:16.770Z,3.60
2022-09-10T17:49:18.754Z,1.33
2022-09-10T17:53:20.891Z,1.80
2022-09-10T17:57:22.912Z,2.75
2022-09-10T18:01:27.879Z,1.50
2022-09-10T18:05:29.893Z,1.10
2022-09-10T18:09:31.905Z,1.13
2022-09-10T18:13:35.489Z,1.70
2022-09-10T18:17:37.991Z,1.75
2022-09-10T18:21:40.762Z,1.80
2022-09-10T18:25:47.911Z,2.05
2022-09-10T18:29:51.750Z,2.65
2022-09-10T18:33:54.516Z,1.90
2022-09-10T18:37:57.179Z,1.77
2022-09-10T18:42:03.409Z,1.38
2022-09-10T18:46:05.796Z,1.33
2022-09-10T18:50:08.280Z,3.13
2022-09-10T18:54:12.788Z,1.45
2022-09-10T18:58:14.776Z,1.60
2022-09-10T19:02:17.797Z,1.02
2022-09-10T19:06:25.418Z,2.35
2022-09-10T19:10:29.419Z,1.88
2022-09-10T19:14:32.763Z,2.05
2022-09-10T19:18:34.762Z,1.30
2022-09-10T19:22:37.660Z,2.13
2022-09-10T19:26:39.731Z,2.03
2022-09-10T19:30:41.735Z,1.80
2022-09-10T19:34:44.291Z,2.08
2022-09-10T19:38:46.957Z,2.30
2022-09-10T19:42:48.969Z,1.90
2022-09-10T19:46:51.006Z,1.55
2022-09-10T19:50:53.339Z,1.00
2022-09-10T19:54:55.321Z,2.72
2022-09-10T19:58:57.799Z,3.28
2022-09-10T20:02:59.979Z,1.90
2022-09-10T20:07:01.959Z,1.67
2022-09-10T20:11:06.226Z,3.15
2022-09-10T20:15:08.587Z,2.03
2022-09-10T20:19:13.048Z,1.60
2022-09-10T20:23:15.217Z,1.13
2022-09-10T20:27:17.312Z,3.03
2022-09-10T20:31:20.856Z,1.98
2022-09-10T20:35:22.914Z,1.73
2022-09-10T20:39:25.289Z,2.53
2022-09-10T20:43:28.254Z,3.60
2022-09-10T20:47:31.325Z,1.85
2022-09-10T20:51:38.746Z,2.13
2022-09-10T20:55:40.772Z,1.45
2022-09-10T20:59:44.046Z,1.17
2022-09-10T21:03:47.969Z,1.73
2022-09-10T21:07:50.529Z,1.10
2022-09-10T21:11:52.510Z,1.33
2022-09-10T21:15:54.555Z,1.67
2022-09-10T21:19:57.100Z,2.05
2022-09-10T21:24:01.720Z,1.00
2022-09-10T21:28:03.685Z,1.85
2022-09-10T21:32:05.966Z,2.00
2022-09-10T21:36:11.883Z,1.67
2022-09-10T21:40:14.022Z,2.20
2022-09-10T21:44:19.643Z,2.95
2022-09-10T21:48:21.757Z,2.58
2022-09-10T21:52:23.946Z,2.75
2022-09-10T21:56:27.630Z,3.42
2022-09-10T22:00:31.064Z,4.20
2022-09-10T22:04:33.047Z,4.75
2022-09-10T22:08:36.302Z,5.68
2022-09-10T22:12:38.315Z,6.25
2022-09-10T22:16:40.347Z,7.10
2022-09-10T22:20:42.336Z,6.72
2022-09-10T22:24:44.339Z,7.15
2022-09-10T22:28:47.119Z,8.15
2022-09-10T22:32:49.083Z,7.95
2022-09-10T22:36:51.081Z,9.13
2022-09-10T22:40:53.543Z,9.85
2022-09-10T22:44:56.756Z,9.10
2022-09-10T22:48:59.461Z,9.30
2022-09-10T22:53:01.452Z,9.40
2022-09-10T22:57:03.541Z,9.73
2022-09-10T23:01:12.270Z,10.13
2022-09-10T23:05:14.408Z,10.63
2022-09-10T23:09:17.800Z,11.15
2022-09-10T23:13:20.235Z,11.18
2022-09-10T23:17:22.744Z,11.25
2022-09-10T23:21:26.988Z,12.23
2022-09-10T23:25:28.997Z,11.40
2022-09-10T23:29:31.106Z,11.90
2022-09-10T23:33:33.079Z,12.43
2022-09-10T23:37:35.120Z,11.77
2022-09-10T23:41:37.152Z,12.90
2022-09-10T23:45:39.147Z,11.88
2022-09-10T23:49:41.141Z,12.77
2022-09-10T23:53:46.691Z,13.25
2022-09-10T23:57:48.796Z,13.95
